sensor_id;sensor_type;location;lat;lon;timestamp;pressure;altitude;pressure_sealevel;temperature;humidity
1926;BME280;964;42.606;23.588;2023-04-29T00:01:37;94565.81;;;25.30;24.28
1926;BME280;964;42.606;23.588;2023-04-29T00:04:03;94577.81;;;25.20;24.32
1926;BME280;964;42.606;23.588;2023-04-29T00:06:31;94569.94;;;25.13;24.63
1926;BME280;964;42.606;23.588;2023-04-29T00:08:58;94583.78;;;24.93;24.65
1926;BME280;964;42.606;23.588;2023-04-29T00:11:25;94581.78;;;24.84;24.84
1926;BME280;964;42.606;23.588;2023-04-29T00:13:51;94580.31;;;24.93;24.59
1926;BME280;964;42.606;23.588;2023-04-29T00:16:18;94580.94;;;24.97;24.53
1926;BME280;964;42.606;23.588;2023-04-29T00:18:45;94582.47;;;24.98;24.65
1926;BME280;964;42.606;23.588;2023-04-29T00:21:12;94584.22;;;24.92;24.70
1926;BME280;964;42.606;23.588;2023-04-29T00:23:40;94579.13;;;24.94;24.76
1926;BME280;964;42.606;23.588;2023-04-29T00:26:06;94588.53;;;25.02;24.67
1926;BME280;964;42.606;23.588;2023-04-29T00:28:33;94590.16;;;24.52;25.01
1926;BME280;964;42.606;23.588;2023-04-29T00:31:00;94588.53;;;25.02;24.82
1926;BME280;964;42.606;23.588;2023-04-29T00:33:27;94585.88;;;25.11;24.86
1926;BME280;964;42.606;23.588;2023-04-29T00:35:54;94589.75;;;24.41;25.71
1926;BME280;964;42.606;23.588;2023-04-29T00:38:20;94601.78;;;23.35;27.04
1926;BME280;964;42.606;23.588;2023-04-29T00:40:49;94608.34;;;22.80;27.97
1926;BME280;964;42.606;23.588;2023-04-29T00:43:16;94604.03;;;22.95;27.32
1926;BME280;964;42.606;23.588;2023-04-29T00:45:43;94604.50;;;23.35;26.85
1926;BME280;964;42.606;23.588;2023-04-29T00:48:11;94591.94;;;23.70;26.70
1926;BME280;964;42.606;23.588;2023-04-29T00:50:39;94589.03;;;24.28;25.94
1926;BME280;964;42.606;23.588;2023-04-29T00:53:06;94581.88;;;24.68;25.43
1926;BME280;964;42.606;23.588;2023-04-29T00:55:34;94578.78;;;24.57;25.84
1926;BME280;964;42.606;23.588;2023-04-29T00:58:03;94567.56;;;25.67;24.51
1926;BME280;964;42.606;23.588;2023-04-29T01:00:29;94570.22;;;25.15;24.71
1926;BME280;964;42.606;23.588;2023-04-29T01:02:57;94563.66;;;25.25;24.65
1926;BME280;964;42.606;23.588;2023-04-29T01:05:24;94570.69;;;24.92;24.76
1926;BME280;964;42.606;23.588;2023-04-29T01:08:01;94560.28;;;25.12;24.71
1926;BME280;964;42.606;23.588;2023-04-29T01:10:36;94561.78;;;25.13;24.73
1926;BME280;964;42.606;23.588;2023-04-29T01:13:08;94568.94;;;25.28;24.41
1926;BME280;964;42.606;23.588;2023-04-29T01:15:44;94568.56;;;24.96;24.80
1926;BME280;964;42.606;23.588;2023-04-29T01:18:18;94562.16;;;24.21;25.74
1926;BME280;964;42.606;23.588;2023-04-29T01:20:46;94563.56;;;23.87;25.94
1926;BME280;964;42.606;23.588;2023-04-29T01:23:13;94563.34;;;23.94;25.62
1926;BME280;964;42.606;23.588;2023-04-29T01:25:41;94559.47;;;24.21;25.31
1926;BME280;964;42.606;23.588;2023-04-29T01:28:17;94558.56;;;24.71;24.83
1926;BME280;964;42.606;23.588;2023-04-29T01:30:50;94566.09;;;24.54;24.91
1926;BME280;964;42.606;23.588;2023-04-29T01:33:28;94563.34;;;23.94;26.07
1926;BME280;964;42.606;23.588;2023-04-29T01:36:07;94563.16;;;23.76;26.08
1926;BME280;964;42.606;23.588;2023-04-29T01:38:37;94569.41;;;23.48;25.93
1926;BME280;964;42.606;23.588;2023-04-29T01:41:14;94577.22;;;23.46;26.20
1926;BME280;964;42.606;23.588;2023-04-29T01:43:42;94568.00;;;23.56;26.43
1926;BME280;964;42.606;23.588;2023-04-29T01:46:13;94568.94;;;23.37;26.50
1926;BME280;964;42.606;23.588;2023-04-29T01:48:42;94563.75;;;22.72;27.34
1926;BME280;964;42.606;23.588;2023-04-29T01:51:09;94569.69;;;23.37;26.15
1926;BME280;964;42.606;23.588;2023-04-29T01:53:36;94565.75;;;22.84;27.24
1926;BME280;964;42.606;23.588;2023-04-29T01:56:05;94557.63;;;23.55;25.99
1926;BME280;964;42.606;23.588;2023-04-29T01:58:33;94562.25;;;23.54;26.35
1926;BME280;964;42.606;23.588;2023-04-29T02:01:00;94559.69;;;23.22;26.33
1926;BME280;964;42.606;23.588;2023-04-29T02:03:27;94567.16;;;23.18;26.30
1926;BME280;964;42.606;23.588;2023-04-29T02:05:53;94568.66;;;23.19;26.85
1926;BME280;964;42.606;23.588;2023-04-29T02:08:20;94565.69;;;23.01;26.63
1926;BME280;964;42.606;23.588;2023-04-29T02:10:53;94558.31;;;23.30;26.82
1926;BME280;964;42.606;23.588;2023-04-29T02:13:20;94566.69;;;23.07;26.62
1926;BME280;964;42.606;23.588;2023-04-29T02:15:48;94552.84;;;23.59;26.51
1926;BME280;964;42.606;23.588;2023-04-29T02:18:15;94552.75;;;23.08;26.50
1926;BME280;964;42.606;23.588;2023-04-29T02:20:42;94549.47;;;21.94;27.69
1926;BME280;964;42.606;23.588;2023-04-29T02:23:09;94552.91;;;22.88;27.05
1926;BME280;964;42.606;23.588;2023-04-29T02:25:35;94545.25;;;23.00;26.92
1926;BME280;964;42.606;23.588;2023-04-29T02:28:02;94544.66;;;23.21;26.45
1926;BME280;964;42.606;23.588;2023-04-29T02:30:29;94545.91;;;23.04;26.94
1926;BME280;964;42.606;23.588;2023-04-29T02:32:57;94546.84;;;23.26;26.93
1926;BME280;964;42.606;23.588;2023-04-29T02:35:24;94553.19;;;22.33;27.44
1926;BME280;964;42.606;23.588;2023-04-29T02:37:51;94547.22;;;22.70;27.42
1926;BME280;964;42.606;23.588;2023-04-29T02:40:17;94553.34;;;22.10;27.72
1926;BME280;964;42.606;23.588;2023-04-29T02:42:44;94551.34;;;22.14;27.80
1926;BME280;964;42.606;23.588;2023-04-29T02:45:11;94550.97;;;22.44;27.47
1926;BME280;964;42.606;23.588;2023-04-29T02:47:37;94542.50;;;22.58;27.20
1926;BME280;964;42.606;23.588;2023-04-29T02:50:06;94548.28;;;22.12;27.60
1926;BME280;964;42.606;23.588;2023-04-29T02:52:33;94553.75;;;21.40;29.05
1926;BME280;964;42.606;23.588;2023-04-29T02:55:00;94551.25;;;21.49;28.79
1926;BME280;964;42.606;23.588;2023-04-29T02:57:27;94554.69;;;22.02;28.10
1926;BME280;964;42.606;23.588;2023-04-29T02:59:56;94548.41;;;22.98;26.41
1926;BME280;964;42.606;23.588;2023-04-29T03:02:23;94552.69;;;23.37;26.33
1926;BME280;964;42.606;23.588;2023-04-29T03:04:50;94555.88;;;23.99;25.94
1926;BME280;964;42.606;23.588;2023-04-29T03:07:18;94559.56;;;24.17;26.05
1926;BME280;964;42.606;23.588;2023-04-29T03:09:45;94553.41;;;24.17;25.50
1926;BME280;964;42.606;23.588;2023-04-29T03:12:11;94568.97;;;24.13;25.46
1926;BME280;964;42.606;23.588;2023-04-29T03:14:38;94579.81;;;24.13;25.17
1926;BME280;964;42.606;23.588;2023-04-29T03:17:05;94580.38;;;24.20;25.18
1926;BME280;964;42.606;23.588;2023-04-29T03:19:32;94596.19;;;23.97;25.35
1926;BME280;964;42.606;23.588;2023-04-29T03:21:58;94591.94;;;23.70;25.73
1926;BME280;964;42.606;23.588;2023-04-29T03:24:26;94591.81;;;23.49;25.62
1926;BME280;964;42.606;23.588;2023-04-29T03:26:53;94583.59;;;23.52;26.33
1926;BME280;964;42.606;23.588;2023-04-29T03:29:20;94585.75;;;23.44;26.06
1926;BME280;964;42.606;23.588;2023-04-29T03:31:46;94582.84;;;23.64;26.18
1926;BME280;964;42.606;23.588;2023-04-29T03:34:13;94577.44;;;23.89;25.84
1926;BME280;964;42.606;23.588;2023-04-29T03:36:40;94587.06;;;23.90;25.71
1926;BME280;964;42.606;23.588;2023-04-29T03:39:06;94589.88;;;23.87;25.74
1926;BME280;964;42.606;23.588;2023-04-29T03:41:34;94591.72;;;24.03;25.78
1926;BME280;964;42.606;23.588;2023-04-29T03:44:01;94598.66;;;23.78;26.03
1926;BME280;964;42.606;23.588;2023-04-29T03:46:28;94598.88;;;23.71;26.48
1926;BME280;964;42.606;23.588;2023-04-29T03:48:55;94605.69;;;24.01;25.78
1926;BME280;964;42.606;23.588;2023-04-29T03:51:22;94617.06;;;24.34;25.77
1926;BME280;964;42.606;23.588;2023-04-29T03:53:49;94617.59;;;24.54;25.48
1926;BME280;964;42.606;23.588;2023-04-29T03:56:16;94613.47;;;24.50;25.64
1926;BME280;964;42.606;23.588;2023-04-29T03:58:44;94615.75;;;24.51;25.82
1926;BME280;964;42.606;23.588;2023-04-29T04:01:11;94621.84;;;24.30;26.00
1926;BME280;964;42.606;23.588;2023-04-29T04:03:38;94622.25;;;24.54;25.64
1926;BME280;964;42.606;23.588;2023-04-29T04:06:05;94613.59;;;24.46;25.93
1926;BME280;964;42.606;23.588;2023-04-29T04:08:31;94620.06;;;24.61;25.80
1926;BME280;964;42.606;23.588;2023-04-29T04:10:58;94604.63;;;24.24;26.05
1926;BME280;964;42.606;23.588;2023-04-29T04:13:27;94611.09;;;23.76;26.64
1926;BME280;964;42.606;23.588;2023-04-29T04:15:55;94610.09;;;23.16;27.35
1926;BME280;964;42.606;23.588;2023-04-29T04:18:22;94604.63;;;24.24;26.72
1926;BME280;964;42.606;23.588;2023-04-29T04:20:49;94596.47;;;24.49;26.35
1926;BME280;964;42.606;23.588;2023-04-29T04:23:16;94589.66;;;24.79;26.30
1926;BME280;964;42.606;23.588;2023-04-29T04:25:46;94587.06;;;25.31;25.95
1926;BME280;964;42.606;23.588;2023-04-29T04:28:13;94594.72;;;25.02;25.49
1926;BME280;964;42.606;23.588;2023-04-29T04:30:40;94585.19;;;25.19;25.45
1926;BME280;964;42.606;23.588;2023-04-29T04:33:08;94593.66;;;25.74;25.26
1926;BME280;964;42.606;23.588;2023-04-29T04:35:35;94591.78;;;25.40;24.96
1926;BME280;964;42.606;23.588;2023-04-29T04:38:01;94585.47;;;25.96;24.48
1926;BME280;964;42.606;23.588;2023-04-29T04:40:28;94586.50;;;25.58;24.92
1926;BME280;964;42.606;23.588;2023-04-29T04:42:55;94577.03;;;25.94;24.30
1926;BME280;964;42.606;23.588;2023-04-29T04:45:21;94572.31;;;25.85;24.05
1926;BME280;964;42.606;23.588;2023-04-29T04:47:48;94572.72;;;25.74;24.01
1926;BME280;964;42.606;23.588;2023-04-29T04:50:16;94571.28;;;25.92;24.13
1926;BME280;964;42.606;23.588;2023-04-29T04:52:43;94571.28;;;25.92;23.66
1926;BME280;964;42.606;23.588;2023-04-29T04:55:10;94568.72;;;26.46;23.37
1926;BME280;964;42.606;23.588;2023-04-29T04:57:37;94576.00;;;26.67;23.20
1926;BME280;964;42.606;23.588;2023-04-29T05:00:04;94567.25;;;26.54;23.38
1926;BME280;964;42.606;23.588;2023-04-29T05:02:33;94576.63;;;26.62;22.91
1926;BME280;964;42.606;23.588;2023-04-29T05:05:00;94575.47;;;25.83;24.17
1926;BME280;964;42.606;23.588;2023-04-29T05:07:28;94571.81;;;26.94;23.39
1926;BME280;964;42.606;23.588;2023-04-29T05:09:55;94573.88;;;26.44;23.90
1926;BME280;964;42.606;23.588;2023-04-29T05:12:26;94584.22;;;26.18;23.97
1926;BME280;964;42.606;23.588;2023-04-29T05:14:54;94584.47;;;26.69;23.97
1926;BME280;964;42.606;23.588;2023-04-29T05:17:21;94579.94;;;26.66;24.11
1926;BME280;964;42.606;23.588;2023-04-29T05:19:48;94580.81;;;26.45;24.49
1926;BME280;964;42.606;23.588;2023-04-29T05:22:15;94585.56;;;26.81;24.38
1926;BME280;964;42.606;23.588;2023-04-29T05:24:43;94581.31;;;27.53;24.00
1926;BME280;964;42.606;23.588;2023-04-29T05:27:12;94572.38;;;27.52;23.79
1926;BME280;964;42.606;23.588;2023-04-29T05:29:39;94563.09;;;28.19;23.15
1926;BME280;964;42.606;23.588;2023-04-29T05:32:05;94567.84;;;28.33;23.22
1926;BME280;964;42.606;23.588;2023-04-29T05:34:32;94545.81;;;28.46;22.67
1926;BME280;964;42.606;23.588;2023-04-29T05:36:59;94541.81;;;28.80;22.85
1926;BME280;964;42.606;23.588;2023-04-29T05:39:26;94545.63;;;28.49;22.85
1926;BME280;964;42.606;23.588;2023-04-29T05:41:54;94535.75;;;29.14;22.50
1926;BME280;964;42.606;23.588;2023-04-29T05:44:21;94537.00;;;28.51;23.14
1926;BME280;964;42.606;23.588;2023-04-29T05:46:48;94539.31;;;28.67;22.55
1926;BME280;964;42.606;23.588;2023-04-29T05:49:15;94541.44;;;28.87;22.49
1926;BME280;964;42.606;23.588;2023-04-29T05:51:42;94536.84;;;28.93;22.55
1926;BME280;964;42.606;23.588;2023-04-29T05:54:09;94525.97;;;29.22;22.79
1926;BME280;964;42.606;23.588;2023-04-29T05:56:35;94526.91;;;29.19;22.56
1926;BME280;964;42.606;23.588;2023-04-29T05:59:03;94519.91;;;30.06;22.65
1926;BME280;964;42.606;23.588;2023-04-29T06:01:30;94512.22;;;29.90;22.39
1926;BME280;964;42.606;23.588;2023-04-29T06:03:57;94519.97;;;29.47;22.27
1926;BME280;964;42.606;23.588;2023-04-29T06:06:23;94520.44;;;30.10;22.08
1926;BME280;964;42.606;23.588;2023-04-29T06:08:50;94511.75;;;30.26;21.88
1926;BME280;964;42.606;23.588;2023-04-29T06:11:17;94518.84;;;30.18;22.66
1926;BME280;964;42.606;23.588;2023-04-29T06:13:44;94509.59;;;29.51;22.69
1926;BME280;964;42.606;23.588;2023-04-29T06:16:12;94514.66;;;29.88;23.55
1926;BME280;964;42.606;23.588;2023-04-29T06:18:39;94502.28;;;30.07;22.67
1926;BME280;964;42.606;23.588;2023-04-29T06:21:05;94515.03;;;29.22;23.50
1926;BME280;964;42.606;23.588;2023-04-29T06:23:32;94514.28;;;29.65;23.16
1926;BME280;964;42.606;23.588;2023-04-29T06:25:59;94519.84;;;30.00;23.26
1926;BME280;964;42.606;23.588;2023-04-29T06:28:25;94527.94;;;30.30;23.09
1926;BME280;964;42.606;23.588;2023-04-29T06:30:54;94527.88;;;29.75;23.65
1926;BME280;964;42.606;23.588;2023-04-29T06:33:22;94528.84;;;30.41;23.22
1926;BME280;964;42.606;23.588;2023-04-29T06:35:49;94526.06;;;30.76;22.61
1926;BME280;964;42.606;23.588;2023-04-29T06:38:15;94524.47;;;30.49;23.54
1926;BME280;964;42.606;23.588;2023-04-29T06:40:42;94521.81;;;30.00;23.52
1926;BME280;964;42.606;23.588;2023-04-29T06:43:09;94526.88;;;30.62;22.96
1926;BME280;964;42.606;23.588;2023-04-29T06:45:36;94532.78;;;30.20;23.38
1926;BME280;964;42.606;23.588;2023-04-29T06:48:03;94533.75;;;30.02;23.51
1926;BME280;964;42.606;23.588;2023-04-29T06:50:31;94527.50;;;30.16;23.75
1926;BME280;964;42.606;23.588;2023-04-29T06:52:58;94516.78;;;31.66;22.02
1926;BME280;964;42.606;23.588;2023-04-29T06:55:24;94513.22;;;31.59;22.08
1926;BME280;964;42.606;23.588;2023-04-29T06:57:51;94515.31;;;31.44;21.82
1926;BME280;964;42.606;23.588;2023-04-29T07:00:18;94528.50;;;31.40;22.17
1926;BME280;964;42.606;23.588;2023-04-29T07:02:47;94510.94;;;31.84;22.25
1926;BME280;964;42.606;23.588;2023-04-29T07:05:13;94513.66;;;32.15;21.52
1926;BME280;964;42.606;23.588;2023-04-29T07:07:41;94500.25;;;32.82;20.93
1926;BME280;964;42.606;23.588;2023-04-29T07:10:09;94497.63;;;33.21;20.29
1926;BME280;964;42.606;23.588;2023-04-29T07:12:35;94501.53;;;32.92;20.18
1926;BME280;964;42.606;23.588;2023-04-29T07:15:03;94492.44;;;33.73;20.05
1926;BME280;964;42.606;23.588;2023-04-29T07:17:29;94491.63;;;33.56;20.03
1926;BME280;964;42.606;23.588;2023-04-29T07:19:56;94484.16;;;33.50;20.01
1926;BME280;964;42.606;23.588;2023-04-29T07:22:23;94491.66;;;33.94;19.50
1926;BME280;964;42.606;23.588;2023-04-29T07:24:53;94496.44;;;33.66;19.44
1926;BME280;964;42.606;23.588;2023-04-29T07:27:21;94481.91;;;33.82;19.30
1926;BME280;964;42.606;23.588;2023-04-29T07:29:48;94491.88;;;33.13;19.85
1926;BME280;964;42.606;23.588;2023-04-29T07:32:15;94481.56;;;34.41;19.80
1926;BME280;964;42.606;23.588;2023-04-29T07:34:41;94486.06;;;34.39;19.07
1926;BME280;964;42.606;23.588;2023-04-29T07:37:08;94480.63;;;34.00;19.51
1926;BME280;964;42.606;23.588;2023-04-29T07:39:35;94476.66;;;34.81;19.29
1926;BME280;964;42.606;23.588;2023-04-29T07:42:03;94477.38;;;35.28;18.18
1926;BME280;964;42.606;23.588;2023-04-29T07:44:30;94482.50;;;34.61;18.97
1926;BME280;964;42.606;23.588;2023-04-29T07:46:57;94481.69;;;35.23;18.11
1926;BME280;964;42.606;23.588;2023-04-29T07:49:23;94483.84;;;35.36;18.82
1926;BME280;964;42.606;23.588;2023-04-29T07:51:51;94492.66;;;33.64;19.51
1926;BME280;964;42.606;23.588;2023-04-29T07:54:18;94482.22;;;35.16;18.71
1926;BME280;964;42.606;23.588;2023-04-29T07:56:44;94483.66;;;34.82;18.04
1926;BME280;964;42.606;23.588;2023-04-29T07:59:12;94480.59;;;34.11;19.07
1926;BME280;964;42.606;23.588;2023-04-29T08:01:39;94482.00;;;34.57;18.17
1926;BME280;964;42.606;23.588;2023-04-29T08:04:06;94480.19;;;33.63;19.09
1926;BME280;964;42.606;23.588;2023-04-29T08:06:33;94486.66;;;33.71;19.85
1926;BME280;964;42.606;23.588;2023-04-29T08:09:00;94475.19;;;34.74;18.95
1926;BME280;964;42.606;23.588;2023-04-29T08:11:26;94475.81;;;34.97;18.79
1926;BME280;964;42.606;23.588;2023-04-29T08:13:53;94472.41;;;34.80;18.76
1926;BME280;964;42.606;23.588;2023-04-29T08:16:23;94476.72;;;35.16;19.01
1926;BME280;964;42.606;23.588;2023-04-29T08:18:50;94486.25;;;34.63;19.11
1926;BME280;964;42.606;23.588;2023-04-29T08:21:17;94475.44;;;35.53;18.79
1926;BME280;964;42.606;23.588;2023-04-29T08:23:44;94477.28;;;35.45;18.33
1926;BME280;964;42.606;23.588;2023-04-29T08:26:11;94474.78;;;36.01;18.64
1926;BME280;964;42.606;23.588;2023-04-29T08:28:38;94477.91;;;34.80;19.07
1926;BME280;964;42.606;23.588;2023-04-29T08:31:05;94464.44;;;35.82;18.19
1926;BME280;964;42.606;23.588;2023-04-29T08:33:33;94460.63;;;36.40;17.20
1926;BME280;964;42.606;23.588;2023-04-29T08:36:01;94463.59;;;35.93;18.11
1926;BME280;964;42.606;23.588;2023-04-29T08:38:28;94460.97;;;36.92;17.09
1926;BME280;964;42.606;23.588;2023-04-29T08:40:55;94440.47;;;37.83;17.50
1926;BME280;964;42.606;23.588;2023-04-29T08:43:22;94455.13;;;36.58;18.04
1926;BME280;964;42.606;23.588;2023-04-29T08:45:49;94437.31;;;37.92;16.41
1926;BME280;964;42.606;23.588;2023-04-29T08:48:16;94433.06;;;38.31;15.52
1926;BME280;964;42.606;23.588;2023-04-29T08:50:44;94425.13;;;38.74;14.95
1926;BME280;964;42.606;23.588;2023-04-29T08:53:14;94427.97;;;38.35;15.47
1926;BME280;964;42.606;23.588;2023-04-29T08:55:46;94442.69;;;37.40;16.33
1926;BME280;964;42.606;23.588;2023-04-29T08:58:14;94435.41;;;38.26;14.37
1926;BME280;964;42.606;23.588;2023-04-29T09:00:42;94426.44;;;38.86;14.86
1926;BME280;964;42.606;23.588;2023-04-29T09:03:13;94426.50;;;38.94;15.23
1926;BME280;964;42.606;23.588;2023-04-29T09:05:42;94421.00;;;39.14;14.53
1926;BME280;964;42.606;23.588;2023-04-29T09:08:12;94413.69;;;38.44;14.04
1926;BME280;964;42.606;23.588;2023-04-29T09:10:41;94424.13;;;37.98;13.86
1926;BME280;964;42.606;23.588;2023-04-29T09:13:08;94414.56;;;37.99;12.69
1926;BME280;964;42.606;23.588;2023-04-29T09:15:47;94405.78;;;39.08;13.71
1926;BME280;964;42.606;23.588;2023-04-29T09:18:41;94409.63;;;37.92;13.28
1926;BME280;964;42.606;23.588;2023-04-29T09:21:16;94409.25;;;38.14;13.71
1926;BME280;964;42.606;23.588;2023-04-29T09:23:45;94400.91;;;39.21;13.69
1926;BME280;964;42.606;23.588;2023-04-29T09:26:11;94406.44;;;38.41;14.16
1926;BME280;964;42.606;23.588;2023-04-29T09:28:38;94398.50;;;38.71;13.68
1926;BME280;964;42.606;23.588;2023-04-29T09:31:08;94403.97;;;37.40;14.56
1926;BME280;964;42.606;23.588;2023-04-29T09:33:52;94395.47;;;38.95;13.50
1926;BME280;964;42.606;23.588;2023-04-29T09:36:38;94387.09;;;38.14;14.17
1926;BME280;964;42.606;23.588;2023-04-29T09:39:08;94386.78;;;38.78;12.86
1926;BME280;964;42.606;23.588;2023-04-29T09:41:40;94387.44;;;39.05;12.32
1926;BME280;964;42.606;23.588;2023-04-29T09:44:08;94386.16;;;39.68;12.05
1926;BME280;964;42.606;23.588;2023-04-29T09:46:36;94383.88;;;38.50;12.79
1926;BME280;964;42.606;23.588;2023-04-29T09:49:03;94376.03;;;39.50;12.90
1926;BME280;964;42.606;23.588;2023-04-29T09:51:30;94370.44;;;39.91;12.32
1926;BME280;964;42.606;23.588;2023-04-29T09:53:59;94372.34;;;39.13;13.70
1926;BME280;964;42.606;23.588;2023-04-29T09:56:27;94373.22;;;38.54;13.24
1926;BME280;964;42.606;23.588;2023-04-29T09:58:55;94372.94;;;37.47;13.02
1926;BME280;964;42.606;23.588;2023-04-29T10:01:23;94373.06;;;37.09;14.04
1926;BME280;964;42.606;23.588;2023-04-29T10:03:53;94364.28;;;37.69;13.80
1926;BME280;964;42.606;23.588;2023-04-29T10:06:20;94374.91;;;38.44;14.32
1926;BME280;964;42.606;23.588;2023-04-29T10:08:48;94365.66;;;38.15;13.55
1926;BME280;964;42.606;23.588;2023-04-29T10:11:15;94357.56;;;38.43;13.13
1926;BME280;964;42.606;23.588;2023-04-29T10:13:44;94354.97;;;38.58;13.49
1926;BME280;964;42.606;23.588;2023-04-29T10:16:22;94353.84;;;39.08;13.22
1926;BME280;964;42.606;23.588;2023-04-29T10:18:53;94346.63;;;38.71;13.47
1926;BME280;964;42.606;23.588;2023-04-29T10:21:26;94339.78;;;39.06;13.34
1926;BME280;964;42.606;23.588;2023-04-29T10:23:56;94342.69;;;39.21;13.17
1926;BME280;964;42.606;23.588;2023-04-29T10:26:26;94339.50;;;39.17;12.70
1926;BME280;964;42.606;23.588;2023-04-29T10:28:55;94341.44;;;37.95;13.86
1926;BME280;964;42.606;23.588;2023-04-29T10:31:24;94337.31;;;38.82;13.50
1926;BME280;964;42.606;23.588;2023-04-29T10:33:54;94337.50;;;38.03;14.46
1926;BME280;964;42.606;23.588;2023-04-29T10:36:22;94329.97;;;38.51;13.29
1926;BME280;964;42.606;23.588;2023-04-29T10:38:51;94323.09;;;40.04;13.90
1926;BME280;964;42.606;23.588;2023-04-29T10:41:21;94326.69;;;38.39;13.42
1926;BME280;964;42.606;23.588;2023-04-29T10:43:50;94327.81;;;38.91;13.20
1926;BME280;964;42.606;23.588;2023-04-29T10:46:19;94316.81;;;39.96;13.05
1926;BME280;964;42.606;23.588;2023-04-29T10:48:47;94316.63;;;40.02;11.96
1926;BME280;964;42.606;23.588;2023-04-29T10:51:27;94317.19;;;39.23;13.17
1926;BME280;964;42.606;23.588;2023-04-29T10:54:03;94310.53;;;40.03;12.22
1926;BME280;964;42.606;23.588;2023-04-29T10:56:42;94312.84;;;39.56;11.76
1926;BME280;964;42.606;23.588;2023-04-29T10:59:10;94311.44;;;39.21;12.05
1926;BME280;964;42.606;23.588;2023-04-29T11:01:47;94309.03;;;38.97;11.80
1926;BME280;964;42.606;23.588;2023-04-29T11:04:15;94314.16;;;38.59;12.89
1926;BME280;964;42.606;23.588;2023-04-29T11:06:44;94311.34;;;38.72;12.74
1926;BME280;964;42.606;23.588;2023-04-29T11:09:14;94307.25;;;37.79;12.75
1926;BME280;964;42.606;23.588;2023-04-29T11:14:36;94308.09;;;37.61;12.56
1926;BME280;964;42.606;23.588;2023-04-29T11:17:07;94318.34;;;36.89;13.22
1926;BME280;964;42.606;23.588;2023-04-29T11:19:35;94312.38;;;36.85;12.85
1926;BME280;964;42.606;23.588;2023-04-29T11:22:07;94315.50;;;37.40;12.68
1926;BME280;964;42.606;23.588;2023-04-29T11:24:36;94314.94;;;36.83;12.62
1926;BME280;964;42.606;23.588;2023-04-29T11:27:14;94306.34;;;37.31;12.68
1926;BME280;964;42.606;23.588;2023-04-29T11:29:41;94313.16;;;36.67;12.93
1926;BME280;964;42.606;23.588;2023-04-29T11:32:09;94309.66;;;37.43;13.28
1926;BME280;964;42.606;23.588;2023-04-29T11:34:36;94308.84;;;37.03;12.94
1926;BME280;964;42.606;23.588;2023-04-29T11:37:04;94317.06;;;35.54;13.73
1926;BME280;964;42.606;23.588;2023-04-29T11:39:32;94323.00;;;36.06;14.51
1926;BME280;964;42.606;23.588;2023-04-29T11:42:03;94314.16;;;36.32;15.09
1926;BME280;964;42.606;23.588;2023-04-29T11:44:32;94306.16;;;36.47;14.30
1926;BME280;964;42.606;23.588;2023-04-29T11:47:03;94313.78;;;36.60;14.57
1926;BME280;964;42.606;23.588;2023-04-29T11:49:32;94307.50;;;36.59;14.35
1926;BME280;964;42.606;23.588;2023-04-29T11:51:59;94306.78;;;36.21;15.16
1926;BME280;964;42.606;23.588;2023-04-29T11:54:26;94302.72;;;36.60;14.94
1926;BME280;964;42.606;23.588;2023-04-29T11:56:53;94306.69;;;36.96;14.92
1926;BME280;964;42.606;23.588;2023-04-29T11:59:21;94295.81;;;36.85;14.90
1926;BME280;964;42.606;23.588;2023-04-29T12:01:48;94308.19;;;36.09;15.50
1926;BME280;964;42.606;23.588;2023-04-29T12:04:14;94298.13;;;36.30;15.16
1926;BME280;964;42.606;23.588;2023-04-29T12:06:43;94296.00;;;36.74;15.62
1926;BME280;964;42.606;23.588;2023-04-29T12:09:09;94298.59;;;36.48;15.15
1926;BME280;964;42.606;23.588;2023-04-29T12:11:36;94286.44;;;36.75;15.21
1926;BME280;964;42.606;23.588;2023-04-29T12:14:03;94293.25;;;36.87;15.39
1926;BME280;964;42.606;23.588;2023-04-29T12:16:31;94303.19;;;36.64;15.79
1926;BME280;964;42.606;23.588;2023-04-29T12:18:59;94307.97;;;35.59;16.13
1926;BME280;964;42.606;23.588;2023-04-29T12:21:25;94317.75;;;35.35;16.15
1926;BME280;964;42.606;23.588;2023-04-29T12:23:57;94308.03;;;34.99;16.80
1926;BME280;964;42.606;23.588;2023-04-29T12:26:26;94302.00;;;35.55;16.30
1926;BME280;964;42.606;23.588;2023-04-29T12:28:56;94301.09;;;35.47;16.66
1926;BME280;964;42.606;23.588;2023-04-29T12:31:23;94305.22;;;34.75;17.35
1926;BME280;964;42.606;23.588;2023-04-29T12:33:57;94296.72;;;34.73;16.65
1926;BME280;964;42.606;23.588;2023-04-29T12:36:24;94298.03;;;34.96;16.50
1926;BME280;964;42.606;23.588;2023-04-29T12:38:51;94296.72;;;34.73;16.89
1926;BME280;964;42.606;23.588;2023-04-29T12:41:35;94288.16;;;35.12;17.55
1926;BME280;964;42.606;23.588;2023-04-29T12:44:02;94291.59;;;34.88;17.33
1926;BME280;964;42.606;23.588;2023-04-29T12:46:33;94295.03;;;34.23;17.12
1926;BME280;964;42.606;23.588;2023-04-29T12:49:01;94294.06;;;34.56;16.80
1926;BME280;964;42.606;23.588;2023-04-29T12:51:29;94293.84;;;34.08;17.28
1926;BME280;964;42.606;23.588;2023-04-29T12:53:56;94290.16;;;33.88;17.43
1926;BME280;964;42.606;23.588;2023-04-29T12:56:24;94287.81;;;34.56;16.90
1926;BME280;964;42.606;23.588;2023-04-29T12:58:51;94284.75;;;34.65;17.65
1926;BME280;964;42.606;23.588;2023-04-29T13:01:17;94283.56;;;34.19;17.62
1926;BME280;964;42.606;23.588;2023-04-29T13:03:44;94289.31;;;33.41;18.94
1926;BME280;964;42.606;23.588;2023-04-29T13:06:11;94294.09;;;33.35;19.23
1926;BME280;964;42.606;23.588;2023-04-29T13:08:37;94279.28;;;33.61;19.13
1926;BME280;964;42.606;23.588;2023-04-29T13:11:04;94276.38;;;34.81;18.56
1926;BME280;964;42.606;23.588;2023-04-29T13:13:32;94278.59;;;34.83;17.93
1926;BME280;964;42.606;23.588;2023-04-29T13:15:59;94276.94;;;34.74;18.23
1926;BME280;964;42.606;23.588;2023-04-29T13:18:26;94285.25;;;33.76;18.79
1926;BME280;964;42.606;23.588;2023-04-29T13:20:52;94284.72;;;33.83;18.80
1926;BME280;964;42.606;23.588;2023-04-29T13:23:19;94273.56;;;34.87;18.02
1926;BME280;964;42.606;23.588;2023-04-29T13:25:46;94272.97;;;33.82;18.80
1926;BME280;964;42.606;23.588;2023-04-29T13:28:13;94274.06;;;34.56;18.59
1926;BME280;964;42.606;23.588;2023-04-29T13:30:42;94272.47;;;35.01;18.50